LFI weather

Langley Air Force Base
Hampton, Virginia, United States

Public forecast

Using degrees Fahrenheit for public forecast. Weather courtesy of forecast.io.

METAR (pilot weather report)

Report is more than 2 hours old.

Retrieved 2019/03/24 07:56 UTC (3 hours ago):

KLFI 240756Z AUTO 00000KT 10SM CLR 02/00 A3028 RMK AO2 SLP260 T00210000 $

TAF (pilot weather forecast)

Retrieved 2019/03/24 09:00 UTC (2 hours ago):

TAF KLFI 240900Z 2409/2515 VRB06KT 9999 SKC QNH3017INS BECMG 2505/2506 21009KT 9999 BKN100 QNH3007INS TX17/2421Z TN02/2409Z